sensor_id;sensor_type;location;lat;lon;timestamp;P1;durP1;ratioP1;P2;durP2;ratioP2
8413;SDS011;4244;48.684;9.028;2023-05-24T00:01:06;6.23;;;5.70;;
8413;SDS011;4244;48.684;9.028;2023-05-24T00:03:32;6.20;;;5.60;;
8413;SDS011;4244;48.684;9.028;2023-05-24T00:06:01;6.97;;;5.47;;
8413;SDS011;4244;48.684;9.028;2023-05-24T00:08:30;7.00;;;5.40;;
8413;SDS011;4244;48.684;9.028;2023-05-24T00:10:57;6.33;;;5.47;;
8413;SDS011;4244;48.684;9.028;2023-05-24T00:13:23;8.23;;;5.27;;
8413;SDS011;4244;48.684;9.028;2023-05-24T00:15:48;7.07;;;5.60;;
8413;SDS011;4244;48.684;9.028;2023-05-24T00:18:14;6.33;;;5.70;;
8413;SDS011;4244;48.684;9.028;2023-05-24T00:20:42;8.50;;;5.00;;
8413;SDS011;4244;48.684;9.028;2023-05-24T00:23:08;5.83;;;5.17;;
8413;SDS011;4244;48.684;9.028;2023-05-24T00:25:34;5.30;;;4.73;;
8413;SDS011;4244;48.684;9.028;2023-05-24T00:28:00;4.87;;;4.20;;
8413;SDS011;4244;48.684;9.028;2023-05-24T00:30:25;7.07;;;6.30;;
8413;SDS011;4244;48.684;9.028;2023-05-24T00:32:51;8.27;;;5.97;;
8413;SDS011;4244;48.684;9.028;2023-05-24T00:35:17;6.63;;;5.20;;
8413;SDS011;4244;48.684;9.028;2023-05-24T00:37:42;7.37;;;6.10;;
8413;SDS011;4244;48.684;9.028;2023-05-24T00:40:09;6.43;;;5.13;;
8413;SDS011;4244;48.684;9.028;2023-05-24T00:42:36;6.53;;;5.47;;
8413;SDS011;4244;48.684;9.028;2023-05-24T00:45:02;7.77;;;5.60;;
8413;SDS011;4244;48.684;9.028;2023-05-24T00:47:28;6.20;;;5.57;;
8413;SDS011;4244;48.684;9.028;2023-05-24T00:49:53;7.10;;;5.27;;
8413;SDS011;4244;48.684;9.028;2023-05-24T00:52:19;4.63;;;4.13;;
8413;SDS011;4244;48.684;9.028;2023-05-24T00:54:45;6.83;;;6.10;;
8413;SDS011;4244;48.684;9.028;2023-05-24T00:57:11;8.07;;;5.53;;
8413;SDS011;4244;48.684;9.028;2023-05-24T00:59:38;7.87;;;5.70;;
8413;SDS011;4244;48.684;9.028;2023-05-24T01:02:04;6.10;;;5.00;;
8413;SDS011;4244;48.684;9.028;2023-05-24T01:04:30;7.10;;;5.67;;
8413;SDS011;4244;48.684;9.028;2023-05-24T01:07:14;5.40;;;4.90;;
8413;SDS011;4244;48.684;9.028;2023-05-24T01:10:02;6.20;;;5.20;;
8413;SDS011;4244;48.684;9.028;2023-05-24T01:15:22;8.63;;;5.83;;
8413;SDS011;4244;48.684;9.028;2023-05-24T01:18:00;5.50;;;5.00;;
8413;SDS011;4244;48.684;9.028;2023-05-24T01:20:31;7.83;;;5.57;;
8413;SDS011;4244;48.684;9.028;2023-05-24T01:23:13;7.27;;;5.20;;
8413;SDS011;4244;48.684;9.028;2023-05-24T01:28:20;5.83;;;5.23;;
8413;SDS011;4244;48.684;9.028;2023-05-24T01:30:46;8.40;;;5.57;;
8413;SDS011;4244;48.684;9.028;2023-05-24T01:33:12;6.03;;;5.43;;
8413;SDS011;4244;48.684;9.028;2023-05-24T01:35:38;8.43;;;5.57;;
8413;SDS011;4244;48.684;9.028;2023-05-24T01:38:06;7.50;;;5.70;;
8413;SDS011;4244;48.684;9.028;2023-05-24T01:40:32;6.00;;;4.77;;
8413;SDS011;4244;48.684;9.028;2023-05-24T01:43:02;7.07;;;4.83;;
8413;SDS011;4244;48.684;9.028;2023-05-24T01:51:06;8.47;;;5.90;;
8413;SDS011;4244;48.684;9.028;2023-05-24T01:53:33;8.73;;;6.00;;
8413;SDS011;4244;48.684;9.028;2023-05-24T01:56:01;5.53;;;4.90;;
8413;SDS011;4244;48.684;9.028;2023-05-24T01:58:28;10.27;;;4.80;;
8413;SDS011;4244;48.684;9.028;2023-05-24T02:00:54;5.33;;;4.83;;
8413;SDS011;4244;48.684;9.028;2023-05-24T02:03:20;8.20;;;5.23;;
8413;SDS011;4244;48.684;9.028;2023-05-24T02:05:46;7.90;;;5.57;;
8413;SDS011;4244;48.684;9.028;2023-05-24T02:08:12;6.93;;;6.23;;
8413;SDS011;4244;48.684;9.028;2023-05-24T02:10:38;9.23;;;5.50;;
8413;SDS011;4244;48.684;9.028;2023-05-24T02:13:05;9.33;;;5.37;;
8413;SDS011;4244;48.684;9.028;2023-05-24T02:15:31;8.47;;;5.50;;
8413;SDS011;4244;48.684;9.028;2023-05-24T02:17:57;12.37;;;6.23;;
8413;SDS011;4244;48.684;9.028;2023-05-24T02:20:23;6.60;;;5.40;;
8413;SDS011;4244;48.684;9.028;2023-05-24T02:22:49;8.13;;;5.13;;
8413;SDS011;4244;48.684;9.028;2023-05-24T02:25:15;6.80;;;5.23;;
8413;SDS011;4244;48.684;9.028;2023-05-24T02:27:40;6.83;;;5.60;;
8413;SDS011;4244;48.684;9.028;2023-05-24T02:30:11;6.10;;;5.13;;
8413;SDS011;4244;48.684;9.028;2023-05-24T02:32:37;8.70;;;4.70;;
8413;SDS011;4244;48.684;9.028;2023-05-24T02:35:02;6.37;;;5.33;;
8413;SDS011;4244;48.684;9.028;2023-05-24T02:37:28;7.30;;;6.03;;
8413;SDS011;4244;48.684;9.028;2023-05-24T02:39:54;7.30;;;5.37;;
8413;SDS011;4244;48.684;9.028;2023-05-24T02:42:19;10.13;;;5.60;;
8413;SDS011;4244;48.684;9.028;2023-05-24T02:44:45;6.67;;;5.40;;
8413;SDS011;4244;48.684;9.028;2023-05-24T02:47:16;5.67;;;5.13;;
8413;SDS011;4244;48.684;9.028;2023-05-24T02:49:42;8.00;;;5.20;;
8413;SDS011;4244;48.684;9.028;2023-05-24T02:52:08;9.50;;;6.13;;
8413;SDS011;4244;48.684;9.028;2023-05-24T02:54:34;7.60;;;6.40;;
8413;SDS011;4244;48.684;9.028;2023-05-24T02:57:00;11.60;;;6.20;;
8413;SDS011;4244;48.684;9.028;2023-05-24T03:02:33;6.27;;;5.63;;
8413;SDS011;4244;48.684;9.028;2023-05-24T03:05:02;7.10;;;5.57;;
8413;SDS011;4244;48.684;9.028;2023-05-24T03:07:28;8.70;;;6.30;;
8413;SDS011;4244;48.684;9.028;2023-05-24T03:09:53;8.83;;;5.77;;
8413;SDS011;4244;48.684;9.028;2023-05-24T03:12:19;9.90;;;5.03;;
8413;SDS011;4244;48.684;9.028;2023-05-24T03:14:45;8.50;;;5.57;;
8413;SDS011;4244;48.684;9.028;2023-05-24T03:17:10;9.23;;;6.53;;
8413;SDS011;4244;48.684;9.028;2023-05-24T03:19:36;7.73;;;5.70;;
8413;SDS011;4244;48.684;9.028;2023-05-24T03:22:02;11.13;;;6.60;;
8413;SDS011;4244;48.684;9.028;2023-05-24T03:24:28;12.63;;;6.20;;
8413;SDS011;4244;48.684;9.028;2023-05-24T03:26:53;13.20;;;6.63;;
8413;SDS011;4244;48.684;9.028;2023-05-24T03:29:19;10.27;;;6.00;;
8413;SDS011;4244;48.684;9.028;2023-05-24T03:31:45;10.63;;;6.33;;
8413;SDS011;4244;48.684;9.028;2023-05-24T03:34:10;9.63;;;6.20;;
8413;SDS011;4244;48.684;9.028;2023-05-24T03:36:36;8.87;;;5.57;;
8413;SDS011;4244;48.684;9.028;2023-05-24T03:39:02;8.00;;;5.97;;
8413;SDS011;4244;48.684;9.028;2023-05-24T03:41:28;9.87;;;6.10;;
8413;SDS011;4244;48.684;9.028;2023-05-24T03:43:55;9.97;;;6.60;;
8413;SDS011;4244;48.684;9.028;2023-05-24T03:46:20;12.67;;;6.50;;
8413;SDS011;4244;48.684;9.028;2023-05-24T03:48:47;9.07;;;5.80;;
8413;SDS011;4244;48.684;9.028;2023-05-24T03:51:13;11.03;;;5.90;;
8413;SDS011;4244;48.684;9.028;2023-05-24T03:53:38;8.90;;;6.27;;
8413;SDS011;4244;48.684;9.028;2023-05-24T03:56:04;9.23;;;6.60;;
8413;SDS011;4244;48.684;9.028;2023-05-24T03:58:30;10.47;;;6.20;;
8413;SDS011;4244;48.684;9.028;2023-05-24T04:00:55;11.57;;;7.00;;
8413;SDS011;4244;48.684;9.028;2023-05-24T04:03:21;12.17;;;6.67;;
8413;SDS011;4244;48.684;9.028;2023-05-24T04:05:49;11.40;;;6.20;;
8413;SDS011;4244;48.684;9.028;2023-05-24T04:08:15;10.00;;;6.20;;
8413;SDS011;4244;48.684;9.028;2023-05-24T04:10:41;9.50;;;6.20;;
8413;SDS011;4244;48.684;9.028;2023-05-24T04:13:07;9.70;;;6.60;;
8413;SDS011;4244;48.684;9.028;2023-05-24T04:15:32;10.47;;;6.43;;
8413;SDS011;4244;48.684;9.028;2023-05-24T04:17:58;11.07;;;7.00;;
8413;SDS011;4244;48.684;9.028;2023-05-24T04:20:24;12.27;;;6.27;;
8413;SDS011;4244;48.684;9.028;2023-05-24T04:22:52;10.40;;;6.10;;
8413;SDS011;4244;48.684;9.028;2023-05-24T04:25:18;10.30;;;6.40;;
8413;SDS011;4244;48.684;9.028;2023-05-24T04:27:44;7.57;;;5.90;;
8413;SDS011;4244;48.684;9.028;2023-05-24T04:30:13;10.93;;;6.27;;
8413;SDS011;4244;48.684;9.028;2023-05-24T04:32:40;12.73;;;6.87;;
8413;SDS011;4244;48.684;9.028;2023-05-24T04:35:08;10.07;;;5.50;;
8413;SDS011;4244;48.684;9.028;2023-05-24T04:37:34;14.30;;;6.80;;
8413;SDS011;4244;48.684;9.028;2023-05-24T04:40:00;10.27;;;6.30;;
8413;SDS011;4244;48.684;9.028;2023-05-24T04:42:29;10.40;;;6.20;;
8413;SDS011;4244;48.684;9.028;2023-05-24T04:44:56;8.67;;;5.93;;
8413;SDS011;4244;48.684;9.028;2023-05-24T04:47:22;8.63;;;6.10;;
8413;SDS011;4244;48.684;9.028;2023-05-24T04:49:47;11.43;;;6.13;;
8413;SDS011;4244;48.684;9.028;2023-05-24T04:52:13;9.50;;;5.57;;
8413;SDS011;4244;48.684;9.028;2023-05-24T04:54:40;7.93;;;5.80;;
8413;SDS011;4244;48.684;9.028;2023-05-24T04:57:05;11.90;;;5.60;;
8413;SDS011;4244;48.684;9.028;2023-05-24T04:59:31;13.50;;;5.87;;
8413;SDS011;4244;48.684;9.028;2023-05-24T05:01:57;10.60;;;5.83;;
8413;SDS011;4244;48.684;9.028;2023-05-24T05:04:22;13.60;;;7.60;;
8413;SDS011;4244;48.684;9.028;2023-05-24T05:06:48;7.33;;;6.30;;
8413;SDS011;4244;48.684;9.028;2023-05-24T05:09:13;8.63;;;6.30;;
8413;SDS011;4244;48.684;9.028;2023-05-24T05:11:39;9.73;;;6.67;;
8413;SDS011;4244;48.684;9.028;2023-05-24T05:14:05;9.97;;;6.47;;
8413;SDS011;4244;48.684;9.028;2023-05-24T05:16:33;8.37;;;6.10;;
8413;SDS011;4244;48.684;9.028;2023-05-24T05:19:00;13.83;;;6.47;;
8413;SDS011;4244;48.684;9.028;2023-05-24T05:21:28;11.33;;;5.83;;
8413;SDS011;4244;48.684;9.028;2023-05-24T05:24:00;12.60;;;6.93;;
8413;SDS011;4244;48.684;9.028;2023-05-24T05:26:27;10.40;;;7.03;;
8413;SDS011;4244;48.684;9.028;2023-05-24T05:28:53;11.90;;;5.50;;
8413;SDS011;4244;48.684;9.028;2023-05-24T05:31:19;9.93;;;6.10;;
8413;SDS011;4244;48.684;9.028;2023-05-24T05:33:45;11.37;;;6.40;;
8413;SDS011;4244;48.684;9.028;2023-05-24T05:36:10;10.53;;;7.00;;
8413;SDS011;4244;48.684;9.028;2023-05-24T05:38:36;11.80;;;6.83;;
8413;SDS011;4244;48.684;9.028;2023-05-24T05:41:01;8.47;;;5.67;;
8413;SDS011;4244;48.684;9.028;2023-05-24T05:43:27;8.10;;;6.57;;
8413;SDS011;4244;48.684;9.028;2023-05-24T05:45:53;10.73;;;6.37;;
8413;SDS011;4244;48.684;9.028;2023-05-24T05:48:20;9.03;;;5.90;;
8413;SDS011;4244;48.684;9.028;2023-05-24T05:50:45;9.57;;;6.33;;
8413;SDS011;4244;48.684;9.028;2023-05-24T05:53:11;13.80;;;7.13;;
8413;SDS011;4244;48.684;9.028;2023-05-24T05:55:37;9.87;;;6.40;;
8413;SDS011;4244;48.684;9.028;2023-05-24T05:58:02;9.90;;;5.80;;
8413;SDS011;4244;48.684;9.028;2023-05-24T06:00:28;15.10;;;6.90;;
8413;SDS011;4244;48.684;9.028;2023-05-24T06:02:54;17.53;;;7.37;;
8413;SDS011;4244;48.684;9.028;2023-05-24T06:08:35;12.27;;;6.83;;
8413;SDS011;4244;48.684;9.028;2023-05-24T06:11:01;10.93;;;7.03;;
8413;SDS011;4244;48.684;9.028;2023-05-24T06:13:26;7.87;;;6.20;;
8413;SDS011;4244;48.684;9.028;2023-05-24T06:15:53;14.37;;;7.00;;
8413;SDS011;4244;48.684;9.028;2023-05-24T06:18:18;10.07;;;5.80;;
8413;SDS011;4244;48.684;9.028;2023-05-24T06:20:45;8.83;;;6.07;;
8413;SDS011;4244;48.684;9.028;2023-05-24T06:23:11;9.93;;;6.40;;
8413;SDS011;4244;48.684;9.028;2023-05-24T06:25:37;10.80;;;6.20;;
8413;SDS011;4244;48.684;9.028;2023-05-24T06:28:04;8.10;;;5.60;;
8413;SDS011;4244;48.684;9.028;2023-05-24T06:30:30;10.50;;;6.23;;
8413;SDS011;4244;48.684;9.028;2023-05-24T06:32:57;10.43;;;5.90;;
8413;SDS011;4244;48.684;9.028;2023-05-24T06:35:23;9.97;;;6.30;;
8413;SDS011;4244;48.684;9.028;2023-05-24T06:37:48;10.70;;;6.57;;
8413;SDS011;4244;48.684;9.028;2023-05-24T06:40:14;11.33;;;7.03;;
8413;SDS011;4244;48.684;9.028;2023-05-24T06:42:40;8.57;;;5.43;;
8413;SDS011;4244;48.684;9.028;2023-05-24T06:45:06;10.90;;;6.13;;
8413;SDS011;4244;48.684;9.028;2023-05-24T06:47:32;10.80;;;5.70;;
8413;SDS011;4244;48.684;9.028;2023-05-24T06:49:59;8.63;;;6.00;;
8413;SDS011;4244;48.684;9.028;2023-05-24T06:52:26;9.27;;;5.10;;
8413;SDS011;4244;48.684;9.028;2023-05-24T06:54:51;9.03;;;5.70;;
8413;SDS011;4244;48.684;9.028;2023-05-24T06:57:17;9.23;;;5.40;;
8413;SDS011;4244;48.684;9.028;2023-05-24T06:59:43;8.90;;;6.27;;
8413;SDS011;4244;48.684;9.028;2023-05-24T07:02:08;10.90;;;6.27;;
8413;SDS011;4244;48.684;9.028;2023-05-24T07:04:34;9.57;;;6.87;;
8413;SDS011;4244;48.684;9.028;2023-05-24T07:07:00;13.20;;;6.73;;
8413;SDS011;4244;48.684;9.028;2023-05-24T07:09:27;9.90;;;6.03;;
8413;SDS011;4244;48.684;9.028;2023-05-24T07:11:52;14.80;;;7.40;;
8413;SDS011;4244;48.684;9.028;2023-05-24T07:14:18;9.33;;;5.73;;
8413;SDS011;4244;48.684;9.028;2023-05-24T07:16:44;7.47;;;5.00;;
8413;SDS011;4244;48.684;9.028;2023-05-24T07:19:10;9.20;;;5.90;;
8413;SDS011;4244;48.684;9.028;2023-05-24T07:21:37;7.73;;;6.10;;
8413;SDS011;4244;48.684;9.028;2023-05-24T07:24:04;12.47;;;6.33;;
8413;SDS011;4244;48.684;9.028;2023-05-24T07:26:30;7.10;;;5.30;;
8413;SDS011;4244;48.684;9.028;2023-05-24T07:28:56;12.10;;;6.70;;
8413;SDS011;4244;48.684;9.028;2023-05-24T07:31:22;8.20;;;5.30;;
8413;SDS011;4244;48.684;9.028;2023-05-24T07:33:47;10.40;;;6.23;;
8413;SDS011;4244;48.684;9.028;2023-05-24T07:36:13;8.60;;;6.37;;
8413;SDS011;4244;48.684;9.028;2023-05-24T07:38:39;10.17;;;5.90;;
8413;SDS011;4244;48.684;9.028;2023-05-24T07:41:05;12.27;;;6.30;;
8413;SDS011;4244;48.684;9.028;2023-05-24T07:43:31;10.00;;;5.97;;
8413;SDS011;4244;48.684;9.028;2023-05-24T07:45:57;11.40;;;7.17;;
8413;SDS011;4244;48.684;9.028;2023-05-24T07:48:23;12.97;;;6.63;;
8413;SDS011;4244;48.684;9.028;2023-05-24T07:50:48;7.83;;;6.37;;
8413;SDS011;4244;48.684;9.028;2023-05-24T07:53:16;9.90;;;5.40;;
8413;SDS011;4244;48.684;9.028;2023-05-24T07:55:43;19.30;;;7.40;;
8413;SDS011;4244;48.684;9.028;2023-05-24T07:58:09;8.27;;;5.70;;
8413;SDS011;4244;48.684;9.028;2023-05-24T08:00:35;10.57;;;6.40;;
8413;SDS011;4244;48.684;9.028;2023-05-24T08:03:02;10.33;;;6.30;;
8413;SDS011;4244;48.684;9.028;2023-05-24T08:05:29;10.70;;;6.67;;
8413;SDS011;4244;48.684;9.028;2023-05-24T08:07:55;9.93;;;5.90;;
8413;SDS011;4244;48.684;9.028;2023-05-24T08:10:22;8.70;;;5.80;;
8413;SDS011;4244;48.684;9.028;2023-05-24T08:12:49;8.60;;;5.80;;
8413;SDS011;4244;48.684;9.028;2023-05-24T08:15:18;9.03;;;6.33;;
8413;SDS011;4244;48.684;9.028;2023-05-24T08:17:44;7.90;;;5.67;;
8413;SDS011;4244;48.684;9.028;2023-05-24T08:20:10;9.50;;;6.33;;
8413;SDS011;4244;48.684;9.028;2023-05-24T08:22:38;7.63;;;5.90;;
8413;SDS011;4244;48.684;9.028;2023-05-24T08:25:04;7.23;;;6.07;;
8413;SDS011;4244;48.684;9.028;2023-05-24T08:27:30;9.07;;;6.60;;
8413;SDS011;4244;48.684;9.028;2023-05-24T08:29:57;10.80;;;6.43;;
8413;SDS011;4244;48.684;9.028;2023-05-24T08:32:22;11.80;;;7.00;;
8413;SDS011;4244;48.684;9.028;2023-05-24T08:34:48;11.47;;;6.30;;
8413;SDS011;4244;48.684;9.028;2023-05-24T08:37:14;9.83;;;6.37;;
8413;SDS011;4244;48.684;9.028;2023-05-24T08:39:43;10.93;;;6.97;;
8413;SDS011;4244;48.684;9.028;2023-05-24T08:42:09;12.33;;;6.87;;
8413;SDS011;4244;48.684;9.028;2023-05-24T08:44:40;9.60;;;6.13;;
8413;SDS011;4244;48.684;9.028;2023-05-24T08:47:10;8.40;;;6.53;;
8413;SDS011;4244;48.684;9.028;2023-05-24T08:49:37;10.20;;;7.20;;
8413;SDS011;4244;48.684;9.028;2023-05-24T08:52:04;12.63;;;6.60;;
8413;SDS011;4244;48.684;9.028;2023-05-24T08:54:32;12.50;;;6.33;;
8413;SDS011;4244;48.684;9.028;2023-05-24T08:57:01;14.67;;;7.70;;
8413;SDS011;4244;48.684;9.028;2023-05-24T08:59:27;10.20;;;6.60;;
8413;SDS011;4244;48.684;9.028;2023-05-24T09:01:53;7.97;;;6.40;;
8413;SDS011;4244;48.684;9.028;2023-05-24T09:04:21;10.53;;;6.30;;
8413;SDS011;4244;48.684;9.028;2023-05-24T09:06:48;10.17;;;6.40;;
8413;SDS011;4244;48.684;9.028;2023-05-24T09:09:16;10.37;;;6.20;;
8413;SDS011;4244;48.684;9.028;2023-05-24T09:11:43;12.27;;;6.53;;
8413;SDS011;4244;48.684;9.028;2023-05-24T09:14:10;12.07;;;6.77;;
8413;SDS011;4244;48.684;9.028;2023-05-24T09:16:36;10.20;;;6.70;;
8413;SDS011;4244;48.684;9.028;2023-05-24T09:19:01;9.87;;;5.60;;
8413;SDS011;4244;48.684;9.028;2023-05-24T09:21:28;11.97;;;6.17;;
8413;SDS011;4244;48.684;9.028;2023-05-24T09:23:54;10.70;;;6.10;;
8413;SDS011;4244;48.684;9.028;2023-05-24T09:26:19;13.67;;;6.10;;
8413;SDS011;4244;48.684;9.028;2023-05-24T09:28:46;9.17;;;5.97;;
8413;SDS011;4244;48.684;9.028;2023-05-24T09:31:12;8.77;;;5.03;;
8413;SDS011;4244;48.684;9.028;2023-05-24T09:33:38;9.10;;;5.83;;
8413;SDS011;4244;48.684;9.028;2023-05-24T09:36:04;7.03;;;6.27;;
8413;SDS011;4244;48.684;9.028;2023-05-24T09:38:31;10.40;;;6.27;;
8413;SDS011;4244;48.684;9.028;2023-05-24T09:41:04;12.30;;;5.60;;
8413;SDS011;4244;48.684;9.028;2023-05-24T09:43:31;8.53;;;5.80;;
8413;SDS011;4244;48.684;9.028;2023-05-24T09:46:03;9.93;;;5.87;;
8413;SDS011;4244;48.684;9.028;2023-05-24T09:48:29;7.90;;;6.47;;
8413;SDS011;4244;48.684;9.028;2023-05-24T09:51:02;9.23;;;6.00;;
8413;SDS011;4244;48.684;9.028;2023-05-24T09:53:34;7.60;;;5.40;;
8413;SDS011;4244;48.684;9.028;2023-05-24T09:56:06;11.07;;;6.40;;
8413;SDS011;4244;48.684;9.028;2023-05-24T09:58:35;10.27;;;6.33;;
8413;SDS011;4244;48.684;9.028;2023-05-24T10:03:30;17.60;;;7.10;;
8413;SDS011;4244;48.684;9.028;2023-05-24T10:05:56;9.07;;;5.70;;
8413;SDS011;4244;48.684;9.028;2023-05-24T10:08:22;12.83;;;6.10;;
8413;SDS011;4244;48.684;9.028;2023-05-24T10:10:48;8.80;;;5.40;;
8413;SDS011;4244;48.684;9.028;2023-05-24T10:13:15;10.03;;;6.60;;
8413;SDS011;4244;48.684;9.028;2023-05-24T10:15:42;12.30;;;5.70;;
8413;SDS011;4244;48.684;9.028;2023-05-24T10:18:09;13.00;;;6.00;;
8413;SDS011;4244;48.684;9.028;2023-05-24T10:20:35;10.00;;;5.70;;
8413;SDS011;4244;48.684;9.028;2023-05-24T10:23:03;11.67;;;6.00;;
8413;SDS011;4244;48.684;9.028;2023-05-24T10:25:31;10.53;;;5.73;;
8413;SDS011;4244;48.684;9.028;2023-05-24T10:27:59;9.73;;;5.70;;
8413;SDS011;4244;48.684;9.028;2023-05-24T10:30:34;10.00;;;6.67;;
8413;SDS011;4244;48.684;9.028;2023-05-24T10:33:06;12.27;;;6.50;;
8413;SDS011;4244;48.684;9.028;2023-05-24T10:35:33;10.33;;;6.10;;
8413;SDS011;4244;48.684;9.028;2023-05-24T10:38:05;11.97;;;6.43;;
8413;SDS011;4244;48.684;9.028;2023-05-24T10:40:42;13.33;;;6.97;;
8413;SDS011;4244;48.684;9.028;2023-05-24T10:43:09;8.87;;;6.13;;
8413;SDS011;4244;48.684;9.028;2023-05-24T10:45:35;9.90;;;6.40;;
8413;SDS011;4244;48.684;9.028;2023-05-24T10:50:37;10.37;;;5.93;;
8413;SDS011;4244;48.684;9.028;2023-05-24T10:53:13;7.23;;;5.27;;
8413;SDS011;4244;48.684;9.028;2023-05-24T10:55:58;14.60;;;6.07;;
8413;SDS011;4244;48.684;9.028;2023-05-24T10:58:44;8.53;;;6.27;;
8413;SDS011;4244;48.684;9.028;2023-05-24T11:07:01;10.80;;;6.50;;
8413;SDS011;4244;48.684;9.028;2023-05-24T11:09:27;8.47;;;5.40;;
8413;SDS011;4244;48.684;9.028;2023-05-24T11:11:55;9.03;;;6.53;;
8413;SDS011;4244;48.684;9.028;2023-05-24T11:14:28;8.43;;;6.07;;
8413;SDS011;4244;48.684;9.028;2023-05-24T11:16:55;10.23;;;6.30;;
8413;SDS011;4244;48.684;9.028;2023-05-24T11:19:22;17.53;;;7.13;;
8413;SDS011;4244;48.684;9.028;2023-05-24T11:21:53;13.30;;;6.60;;
8413;SDS011;4244;48.684;9.028;2023-05-24T11:24:22;12.03;;;6.67;;
8413;SDS011;4244;48.684;9.028;2023-05-24T11:26:49;7.27;;;6.00;;
8413;SDS011;4244;48.684;9.028;2023-05-24T11:29:16;8.13;;;6.23;;
8413;SDS011;4244;48.684;9.028;2023-05-24T11:31:46;11.10;;;6.07;;
8413;SDS011;4244;48.684;9.028;2023-05-24T11:34:16;10.30;;;6.70;;
8413;SDS011;4244;48.684;9.028;2023-05-24T11:36:43;13.63;;;7.53;;
8413;SDS011;4244;48.684;9.028;2023-05-24T11:39:09;7.70;;;5.60;;
8413;SDS011;4244;48.684;9.028;2023-05-24T11:41:36;19.17;;;6.23;;
8413;SDS011;4244;48.684;9.028;2023-05-24T11:44:02;10.17;;;6.03;;
8413;SDS011;4244;48.684;9.028;2023-05-24T11:46:28;9.43;;;6.33;;
8413;SDS011;4244;48.684;9.028;2023-05-24T11:48:57;11.10;;;6.37;;
8413;SDS011;4244;48.684;9.028;2023-05-24T11:51:28;12.03;;;6.70;;
8413;SDS011;4244;48.684;9.028;2023-05-24T11:53:55;9.40;;;6.17;;
8413;SDS011;4244;48.684;9.028;2023-05-24T11:56:24;9.40;;;5.40;;
8413;SDS011;4244;48.684;9.028;2023-05-24T11:58:52;12.07;;;6.67;;
8413;SDS011;4244;48.684;9.028;2023-05-24T12:01:24;8.87;;;5.80;;
8413;SDS011;4244;48.684;9.028;2023-05-24T12:03:51;6.50;;;4.77;;
8413;SDS011;4244;48.684;9.028;2023-05-24T12:06:18;10.13;;;5.40;;
8413;SDS011;4244;48.684;9.028;2023-05-24T12:08:44;16.10;;;6.27;;
8413;SDS011;4244;48.684;9.028;2023-05-24T12:11:10;9.33;;;5.37;;
8413;SDS011;4244;48.684;9.028;2023-05-24T12:13:36;7.37;;;4.90;;
8413;SDS011;4244;48.684;9.028;2023-05-24T12:16:04;9.97;;;5.60;;
8413;SDS011;4244;48.684;9.028;2023-05-24T12:18:30;9.83;;;5.60;;
8413;SDS011;4244;48.684;9.028;2023-05-24T12:20:56;8.67;;;5.60;;
8413;SDS011;4244;48.684;9.028;2023-05-24T12:23:23;8.10;;;5.03;;
8413;SDS011;4244;48.684;9.028;2023-05-24T12:25:49;6.57;;;5.00;;
8413;SDS011;4244;48.684;9.028;2023-05-24T12:28:18;7.93;;;5.30;;
8413;SDS011;4244;48.684;9.028;2023-05-24T12:30:47;5.63;;;4.43;;
8413;SDS011;4244;48.684;9.028;2023-05-24T12:33:13;8.67;;;5.93;;
8413;SDS011;4244;48.684;9.028;2023-05-24T12:35:39;8.43;;;5.37;;
8413;SDS011;4244;48.684;9.028;2023-05-24T12:38:09;9.30;;;4.80;;
8413;SDS011;4244;48.684;9.028;2023-05-24T12:40:36;7.63;;;4.93;;
8413;SDS011;4244;48.684;9.028;2023-05-24T12:43:02;9.53;;;5.27;;
8413;SDS011;4244;48.684;9.028;2023-05-24T12:45:29;5.20;;;4.10;;
8413;SDS011;4244;48.684;9.028;2023-05-24T12:47:56;9.00;;;4.63;;
8413;SDS011;4244;48.684;9.028;2023-05-24T12:50:24;5.27;;;4.10;;
8413;SDS011;4244;48.684;9.028;2023-05-24T12:52:50;10.33;;;4.10;;
8413;SDS011;4244;48.684;9.028;2023-05-24T12:55:24;7.73;;;4.20;;
8413;SDS011;4244;48.684;9.028;2023-05-24T12:57:50;7.50;;;4.60;;
8413;SDS011;4244;48.684;9.028;2023-05-24T13:00:26;7.50;;;4.50;;
8413;SDS011;4244;48.684;9.028;2023-05-24T13:02:56;18.57;;;6.50;;
8413;SDS011;4244;48.684;9.028;2023-05-24T13:05:25;9.03;;;4.90;;
8413;SDS011;4244;48.684;9.028;2023-05-24T13:07:54;9.67;;;5.07;;
8413;SDS011;4244;48.684;9.028;2023-05-24T13:10:20;24.20;;;6.60;;
8413;SDS011;4244;48.684;9.028;2023-05-24T13:12:47;9.43;;;4.83;;
8413;SDS011;4244;48.684;9.028;2023-05-24T13:15:13;9.17;;;5.07;;
8413;SDS011;4244;48.684;9.028;2023-05-24T13:17:39;8.37;;;4.50;;
8413;SDS011;4244;48.684;9.028;2023-05-24T13:20:06;7.83;;;4.90;;
8413;SDS011;4244;48.684;9.028;2023-05-24T13:22:32;11.03;;;5.50;;
8413;SDS011;4244;48.684;9.028;2023-05-24T13:24:59;6.67;;;4.33;;
8413;SDS011;4244;48.684;9.028;2023-05-24T13:27:27;8.03;;;4.10;;
8413;SDS011;4244;48.684;9.028;2023-05-24T13:29:53;5.97;;;3.73;;
8413;SDS011;4244;48.684;9.028;2023-05-24T13:32:19;5.00;;;4.50;;
8413;SDS011;4244;48.684;9.028;2023-05-24T13:34:45;7.70;;;5.30;;
8413;SDS011;4244;48.684;9.028;2023-05-24T13:37:11;7.63;;;4.60;;
8413;SDS011;4244;48.684;9.028;2023-05-24T13:39:39;5.37;;;3.90;;
8413;SDS011;4244;48.684;9.028;2023-05-24T13:42:05;5.10;;;4.20;;
8413;SDS011;4244;48.684;9.028;2023-05-24T13:44:31;7.70;;;4.80;;
8413;SDS011;4244;48.684;9.028;2023-05-24T13:46:57;9.53;;;4.87;;
8413;SDS011;4244;48.684;9.028;2023-05-24T13:49:22;5.17;;;4.17;;
8413;SDS011;4244;48.684;9.028;2023-05-24T13:51:48;8.17;;;4.83;;
8413;SDS011;4244;48.684;9.028;2023-05-24T13:54:14;8.60;;;4.33;;
8413;SDS011;4244;48.684;9.028;2023-05-24T13:56:40;6.73;;;4.70;;
8413;SDS011;4244;48.684;9.028;2023-05-24T13:59:08;7.70;;;5.03;;
8413;SDS011;4244;48.684;9.028;2023-05-24T14:01:34;7.27;;;4.43;;
8413;SDS011;4244;48.684;9.028;2023-05-24T14:04:03;8.50;;;4.33;;
8413;SDS011;4244;48.684;9.028;2023-05-24T14:06:30;12.53;;;5.20;;
8413;SDS011;4244;48.684;9.028;2023-05-24T14:08:56;14.10;;;4.90;;
8413;SDS011;4244;48.684;9.028;2023-05-24T14:11:23;5.27;;;3.43;;
8413;SDS011;4244;48.684;9.028;2023-05-24T14:13:50;6.27;;;4.50;;
8413;SDS011;4244;48.684;9.028;2023-05-24T14:16:16;6.90;;;4.10;;
8413;SDS011;4244;48.684;9.028;2023-05-24T14:18:42;7.60;;;5.70;;
8413;SDS011;4244;48.684;9.028;2023-05-24T14:21:08;8.47;;;5.00;;
8413;SDS011;4244;48.684;9.028;2023-05-24T14:23:34;8.33;;;4.67;;
8413;SDS011;4244;48.684;9.028;2023-05-24T14:26:00;8.43;;;4.73;;
8413;SDS011;4244;48.684;9.028;2023-05-24T14:28:26;7.93;;;3.80;;
8413;SDS011;4244;48.684;9.028;2023-05-24T14:30:51;9.17;;;4.53;;
8413;SDS011;4244;48.684;9.028;2023-05-24T14:33:17;8.10;;;4.80;;
8413;SDS011;4244;48.684;9.028;2023-05-24T14:35:43;6.67;;;4.30;;
8413;SDS011;4244;48.684;9.028;2023-05-24T14:38:10;8.07;;;4.37;;
8413;SDS011;4244;48.684;9.028;2023-05-24T14:40:36;7.50;;;4.43;;
8413;SDS011;4244;48.684;9.028;2023-05-24T14:43:05;5.97;;;3.77;;
8413;SDS011;4244;48.684;9.028;2023-05-24T14:45:31;8.90;;;5.20;;
8413;SDS011;4244;48.684;9.028;2023-05-24T14:47:57;6.33;;;3.93;;
8413;SDS011;4244;48.684;9.028;2023-05-24T14:50:24;7.43;;;4.10;;
8413;SDS011;4244;48.684;9.028;2023-05-24T14:52:50;5.50;;;4.20;;
8413;SDS011;4244;48.684;9.028;2023-05-24T14:55:16;6.80;;;4.03;;
8413;SDS011;4244;48.684;9.028;2023-05-24T14:57:42;5.80;;;3.90;;
8413;SDS011;4244;48.684;9.028;2023-05-24T15:00:08;8.10;;;4.13;;
8413;SDS011;4244;48.684;9.028;2023-05-24T15:02:34;5.67;;;3.37;;
8413;SDS011;4244;48.684;9.028;2023-05-24T15:05:00;6.10;;;3.93;;
8413;SDS011;4244;48.684;9.028;2023-05-24T15:07:26;6.63;;;3.83;;
8413;SDS011;4244;48.684;9.028;2023-05-24T15:09:52;6.13;;;3.67;;
8413;SDS011;4244;48.684;9.028;2023-05-24T15:12:18;6.93;;;3.67;;
8413;SDS011;4244;48.684;9.028;2023-05-24T15:14:43;6.27;;;4.23;;
8413;SDS011;4244;48.684;9.028;2023-05-24T15:17:09;5.90;;;3.67;;
8413;SDS011;4244;48.684;9.028;2023-05-24T15:19:36;8.93;;;3.93;;
8413;SDS011;4244;48.684;9.028;2023-05-24T15:22:02;5.87;;;4.30;;
8413;SDS011;4244;48.684;9.028;2023-05-24T15:24:28;7.80;;;3.70;;
8413;SDS011;4244;48.684;9.028;2023-05-24T15:26:54;6.87;;;3.80;;
8413;SDS011;4244;48.684;9.028;2023-05-24T15:29:19;9.03;;;4.00;;
8413;SDS011;4244;48.684;9.028;2023-05-24T15:31:45;5.80;;;3.67;;
8413;SDS011;4244;48.684;9.028;2023-05-24T15:34:11;4.73;;;3.83;;
8413;SDS011;4244;48.684;9.028;2023-05-24T15:36:36;8.13;;;3.73;;